sensor_id;sensor_type;location;lat;lon;timestamp;pressure;altitude;pressure_sealevel;temperature;humidity
14067;BME280;7108;42.684;23.350;2022-07-18T00:00:30;96008.47;;;21.44;48.08
14067;BME280;7108;42.684;23.350;2022-07-18T00:02:55;95999.16;;;21.34;48.95
14067;BME280;7108;42.684;23.350;2022-07-18T00:05:21;95994.19;;;21.26;49.22
14067;BME280;7108;42.684;23.350;2022-07-18T00:07:46;95998.19;;;21.14;49.46
14067;BME280;7108;42.684;23.350;2022-07-18T00:10:12;96007.13;;;21.22;49.57
14067;BME280;7108;42.684;23.350;2022-07-18T00:12:37;95981.03;;;21.07;49.60
14067;BME280;7108;42.684;23.350;2022-07-18T00:15:04;95994.72;;;21.10;50.08
14067;BME280;7108;42.684;23.350;2022-07-18T00:17:30;96007.94;;;21.19;50.00
14067;BME280;7108;42.684;23.350;2022-07-18T00:19:55;95989.25;;;21.07;49.70
14067;BME280;7108;42.684;23.350;2022-07-18T00:22:20;95997.88;;;21.06;49.35
14067;BME280;7108;42.684;23.350;2022-07-18T00:24:46;95992.47;;;20.99;49.41
14067;BME280;7108;42.684;23.350;2022-07-18T00:27:11;95997.94;;;20.99;50.05
14067;BME280;7108;42.684;23.350;2022-07-18T00:29:37;95998.34;;;20.97;51.07
14067;BME280;7108;42.684;23.350;2022-07-18T00:32:05;95978.56;;;20.79;50.75
14067;BME280;7108;42.684;23.350;2022-07-18T00:34:31;96005.16;;;20.79;50.18
14067;BME280;7108;42.684;23.350;2022-07-18T00:36:57;95991.13;;;20.73;50.18
14067;BME280;7108;42.684;23.350;2022-07-18T00:39:23;95976.72;;;20.62;50.34
14067;BME280;7108;42.684;23.350;2022-07-18T00:41:49;95996.94;;;20.79;49.83
14067;BME280;7108;42.684;23.350;2022-07-18T00:44:19;96002.09;;;20.73;48.99
14067;BME280;7108;42.684;23.350;2022-07-18T00:46:45;95986.81;;;20.76;48.71
14067;BME280;7108;42.684;23.350;2022-07-18T00:49:10;95980.56;;;20.68;48.60
14067;BME280;7108;42.684;23.350;2022-07-18T00:51:36;96003.97;;;20.80;48.51
14067;BME280;7108;42.684;23.350;2022-07-18T00:54:03;96001.25;;;20.73;49.35
14067;BME280;7108;42.684;23.350;2022-07-18T00:56:29;95994.66;;;20.67;49.38
14067;BME280;7108;42.684;23.350;2022-07-18T00:58:55;96003.34;;;20.58;49.80
14067;BME280;7108;42.684;23.350;2022-07-18T01:01:20;96015.81;;;20.63;49.08
14067;BME280;7108;42.684;23.350;2022-07-18T01:04:20;96004.56;;;20.50;46.88
14067;BME280;7108;42.684;23.350;2022-07-18T01:06:47;96012.75;;;20.57;46.68
14067;BME280;7108;42.684;23.350;2022-07-18T01:09:15;96008.81;;;20.58;47.04
14067;BME280;7108;42.684;23.350;2022-07-18T01:11:41;96015.81;;;20.63;47.81
14067;BME280;7108;42.684;23.350;2022-07-18T01:14:08;96033.47;;;20.58;48.44
14067;BME280;7108;42.684;23.350;2022-07-18T01:16:34;96003.75;;;20.53;47.55
14067;BME280;7108;42.684;23.350;2022-07-18T01:19:00;96009.19;;;20.60;47.19
14067;BME280;7108;42.684;23.350;2022-07-18T01:21:25;95992.41;;;20.55;46.46
14067;BME280;7108;42.684;23.350;2022-07-18T01:23:51;95992.03;;;20.49;46.28
14067;BME280;7108;42.684;23.350;2022-07-18T01:26:17;95994.00;;;20.52;46.41
14067;BME280;7108;42.684;23.350;2022-07-18T01:28:43;96003.00;;;20.49;46.14
14067;BME280;7108;42.684;23.350;2022-07-18T01:31:09;95997.94;;;20.48;45.88
14067;BME280;7108;42.684;23.350;2022-07-18T01:33:35;96007.66;;;20.56;46.54
14067;BME280;7108;42.684;23.350;2022-07-18T01:36:03;95991.72;;;20.41;46.76
14067;BME280;7108;42.684;23.350;2022-07-18T01:38:30;96003.09;;;20.39;46.76
14067;BME280;7108;42.684;23.350;2022-07-18T01:40:56;95998.75;;;20.42;46.12
14067;BME280;7108;42.684;23.350;2022-07-18T01:43:26;95980.09;;;20.26;45.35
14067;BME280;7108;42.684;23.350;2022-07-18T01:45:53;95984.38;;;20.27;45.34
14067;BME280;7108;42.684;23.350;2022-07-18T01:48:19;95987.50;;;20.29;45.27
14067;BME280;7108;42.684;23.350;2022-07-18T01:50:45;95994.06;;;20.39;45.12
14067;BME280;7108;42.684;23.350;2022-07-18T01:53:11;95980.81;;;20.30;44.90
14067;BME280;7108;42.684;23.350;2022-07-18T01:55:37;95977.72;;;20.32;44.94
14067;BME280;7108;42.684;23.350;2022-07-18T01:58:04;95974.59;;;20.26;44.03
14067;BME280;7108;42.684;23.350;2022-07-18T02:00:29;95973.09;;;20.22;44.49
14067;BME280;7108;42.684;23.350;2022-07-18T02:02:55;95983.19;;;20.32;44.19
14067;BME280;7108;42.684;23.350;2022-07-18T02:05:20;95966.47;;;20.19;44.07
14067;BME280;7108;42.684;23.350;2022-07-18T02:07:45;95993.31;;;20.35;44.32
14067;BME280;7108;42.684;23.350;2022-07-18T02:10:17;95974.28;;;20.17;44.80
14067;BME280;7108;42.684;23.350;2022-07-18T02:12:42;95989.47;;;20.25;44.40
14067;BME280;7108;42.684;23.350;2022-07-18T02:15:09;96000.81;;;20.27;44.75
14067;BME280;7108;42.684;23.350;2022-07-18T02:17:36;95989.56;;;20.08;45.25
14067;BME280;7108;42.684;23.350;2022-07-18T02:20:03;95997.38;;;20.09;45.36
14067;BME280;7108;42.684;23.350;2022-07-18T02:22:29;95990.00;;;20.03;45.56
14067;BME280;7108;42.684;23.350;2022-07-18T02:24:54;95993.13;;;20.01;45.47
14067;BME280;7108;42.684;23.350;2022-07-18T02:27:20;95992.78;;;19.96;45.78
14067;BME280;7108;42.684;23.350;2022-07-18T02:29:45;95996.28;;;19.96;46.06
14067;BME280;7108;42.684;23.350;2022-07-18T02:32:11;95995.91;;;19.87;46.50
14067;BME280;7108;42.684;23.350;2022-07-18T02:34:37;95993.97;;;19.81;46.91
14067;BME280;7108;42.684;23.350;2022-07-18T02:37:03;96010.00;;;19.82;46.48
14067;BME280;7108;42.684;23.350;2022-07-18T02:39:29;96008.03;;;19.79;46.57
14067;BME280;7108;42.684;23.350;2022-07-18T02:41:54;96003.81;;;19.65;46.71
14067;BME280;7108;42.684;23.350;2022-07-18T02:44:20;96016.72;;;19.61;46.94
14067;BME280;7108;42.684;23.350;2022-07-18T02:46:46;96025.34;;;19.56;47.38
14067;BME280;7108;42.684;23.350;2022-07-18T02:49:12;96031.19;;;19.51;48.04
14067;BME280;7108;42.684;23.350;2022-07-18T02:51:53;96025.75;;;19.37;48.51
14067;BME280;7108;42.684;23.350;2022-07-18T02:54:19;96023.00;;;19.44;48.27
14067;BME280;7108;42.684;23.350;2022-07-18T02:56:44;96031.22;;;19.37;49.18
14067;BME280;7108;42.684;23.350;2022-07-18T02:59:10;96023.06;;;19.33;49.05
14067;BME280;7108;42.684;23.350;2022-07-18T03:01:35;96024.97;;;19.33;49.09
14067;BME280;7108;42.684;23.350;2022-07-18T03:04:03;96026.59;;;19.23;49.60
14067;BME280;7108;42.684;23.350;2022-07-18T03:06:29;96032.03;;;19.13;50.63
14067;BME280;7108;42.684;23.350;2022-07-18T03:08:54;96020.72;;;19.04;51.19
14067;BME280;7108;42.684;23.350;2022-07-18T03:11:20;96016.81;;;19.08;50.62
14067;BME280;7108;42.684;23.350;2022-07-18T03:13:45;96014.47;;;19.07;50.06
14067;BME280;7108;42.684;23.350;2022-07-18T03:16:11;96023.44;;;19.04;49.57
14067;BME280;7108;42.684;23.350;2022-07-18T03:18:36;96035.53;;;19.17;49.49
14067;BME280;7108;42.684;23.350;2022-07-18T03:21:02;96018.38;;;19.09;49.93
14067;BME280;7108;42.684;23.350;2022-07-18T03:23:27;96038.69;;;19.15;48.91
14067;BME280;7108;42.684;23.350;2022-07-18T03:25:53;95988.72;;;18.84;48.99
14067;BME280;7108;42.684;23.350;2022-07-18T03:28:18;96027.75;;;19.05;49.89
14067;BME280;7108;42.684;23.350;2022-07-18T03:30:44;96006.69;;;18.95;50.11
14067;BME280;7108;42.684;23.350;2022-07-18T03:33:09;96041.41;;;19.12;49.39
14067;BME280;7108;42.684;23.350;2022-07-18T03:35:35;96033.22;;;19.12;48.89
14067;BME280;7108;42.684;23.350;2022-07-18T03:38:00;96035.53;;;19.07;49.41
14067;BME280;7108;42.684;23.350;2022-07-18T03:40:26;96021.09;;;19.03;49.15
14067;BME280;7108;42.684;23.350;2022-07-18T03:42:52;96040.25;;;19.03;48.83
14067;BME280;7108;42.684;23.350;2022-07-18T03:45:17;96026.97;;;18.91;49.09
14067;BME280;7108;42.684;23.350;2022-07-18T03:47:43;96030.47;;;18.84;49.52
14067;BME280;7108;42.684;23.350;2022-07-18T03:50:08;96045.28;;;19.01;49.46
14067;BME280;7108;42.684;23.350;2022-07-18T03:52:34;96052.31;;;19.02;49.75
14067;BME280;7108;42.684;23.350;2022-07-18T03:54:59;96042.16;;;19.02;49.90
14067;BME280;7108;42.684;23.350;2022-07-18T03:57:27;96036.72;;;18.88;50.56
14067;BME280;7108;42.684;23.350;2022-07-18T03:59:52;96034.38;;;18.94;50.95
14067;BME280;7108;42.684;23.350;2022-07-18T04:02:18;96034.75;;;18.92;51.50
14067;BME280;7108;42.684;23.350;2022-07-18T04:04:44;96043.34;;;19.01;51.28
14067;BME280;7108;42.684;23.350;2022-07-18T04:07:10;96039.84;;;19.04;51.55
14067;BME280;7108;42.684;23.350;2022-07-18T04:09:35;96044.13;;;19.12;51.56
14067;BME280;7108;42.684;23.350;2022-07-18T04:12:01;96044.16;;;19.19;50.63
14067;BME280;7108;42.684;23.350;2022-07-18T04:14:26;96044.53;;;19.14;50.59
14067;BME280;7108;42.684;23.350;2022-07-18T04:16:52;96042.19;;;19.16;50.50
14067;BME280;7108;42.684;23.350;2022-07-18T04:19:17;96040.63;;;19.22;51.09
14067;BME280;7108;42.684;23.350;2022-07-18T04:21:43;96041.41;;;19.19;50.55
14067;BME280;7108;42.684;23.350;2022-07-18T04:24:09;96050.78;;;19.28;50.93
14067;BME280;7108;42.684;23.350;2022-07-18T04:26:34;96033.59;;;19.28;50.32
14067;BME280;7108;42.684;23.350;2022-07-18T04:29:00;96039.81;;;19.32;50.57
14067;BME280;7108;42.684;23.350;2022-07-18T04:31:25;96028.50;;;19.30;50.08
14067;BME280;7108;42.684;23.350;2022-07-18T04:33:50;96046.84;;;19.47;47.03
14067;BME280;7108;42.684;23.350;2022-07-18T04:36:16;96028.06;;;19.52;46.06
14067;BME280;7108;42.684;23.350;2022-07-18T04:38:43;96024.94;;;19.57;45.87
14067;BME280;7108;42.684;23.350;2022-07-18T04:41:09;96030.00;;;19.59;44.16
14067;BME280;7108;42.684;23.350;2022-07-18T04:43:34;96043.66;;;19.62;43.29
14067;BME280;7108;42.684;23.350;2022-07-18T04:46:00;96041.69;;;19.66;42.75
14067;BME280;7108;42.684;23.350;2022-07-18T04:48:25;96022.19;;;19.57;42.31
14067;BME280;7108;42.684;23.350;2022-07-18T04:50:51;96025.69;;;19.68;43.43
14067;BME280;7108;42.684;23.350;2022-07-18T04:53:17;96037.00;;;19.70;42.95
14067;BME280;7108;42.684;23.350;2022-07-18T04:55:42;96033.84;;;19.78;42.88
14067;BME280;7108;42.684;23.350;2022-07-18T04:58:08;96030.69;;;19.87;43.43
14067;BME280;7108;42.684;23.350;2022-07-18T05:00:33;96018.97;;;19.93;42.87
14067;BME280;7108;42.684;23.350;2022-07-18T05:02:59;96025.97;;;20.01;42.62
14067;BME280;7108;42.684;23.350;2022-07-18T05:05:26;96024.34;;;20.14;46.68
14067;BME280;7108;42.684;23.350;2022-07-18T05:07:52;96028.66;;;20.12;47.95
14067;BME280;7108;42.684;23.350;2022-07-18T05:10:19;96035.28;;;20.14;48.13
14067;BME280;7108;42.684;23.350;2022-07-18T05:12:48;96036.03;;;20.22;48.33
14067;BME280;7108;42.684;23.350;2022-07-18T05:15:16;96039.13;;;20.24;47.95
14067;BME280;7108;42.684;23.350;2022-07-18T05:17:42;96020.06;;;20.10;47.46
14067;BME280;7108;42.684;23.350;2022-07-18T05:20:11;96021.56;;;20.18;47.06
14067;BME280;7108;42.684;23.350;2022-07-18T05:22:37;96027.00;;;20.28;47.29
14067;BME280;7108;42.684;23.350;2022-07-18T05:25:05;96034.38;;;20.38;47.26
14067;BME280;7108;42.684;23.350;2022-07-18T05:27:31;96038.25;;;20.44;47.37
14067;BME280;7108;42.684;23.350;2022-07-18T05:29:56;96044.88;;;20.46;47.17
14067;BME280;7108;42.684;23.350;2022-07-18T05:32:25;96035.94;;;20.36;46.87
14067;BME280;7108;42.684;23.350;2022-07-18T05:34:50;96010.59;;;20.25;47.32
14067;BME280;7108;42.684;23.350;2022-07-18T05:37:16;96031.66;;;20.31;47.83
14067;BME280;7108;42.684;23.350;2022-07-18T05:39:41;96046.50;;;20.37;47.83
14067;BME280;7108;42.684;23.350;2022-07-18T05:42:07;96021.53;;;20.28;47.48
14067;BME280;7108;42.684;23.350;2022-07-18T05:44:32;96043.72;;;20.44;46.82
14067;BME280;7108;42.684;23.350;2022-07-18T05:46:58;96040.19;;;20.43;46.30
14067;BME280;7108;42.684;23.350;2022-07-18T05:49:23;96039.81;;;20.45;45.77
14067;BME280;7108;42.684;23.350;2022-07-18T05:51:49;96024.19;;;20.39;45.03
14067;BME280;7108;42.684;23.350;2022-07-18T05:54:14;96032.75;;;20.47;44.50
14067;BME280;7108;42.684;23.350;2022-07-18T05:56:49;96024.47;;;20.54;44.39
14067;BME280;7108;42.684;23.350;2022-07-18T05:59:16;96041.97;;;20.74;43.57
14067;BME280;7108;42.684;23.350;2022-07-18T06:01:42;96046.31;;;20.68;41.18
14067;BME280;7108;42.684;23.350;2022-07-18T06:04:07;96045.06;;;20.83;41.91
14067;BME280;7108;42.684;23.350;2022-07-18T06:06:32;96054.34;;;20.96;41.26
14067;BME280;7108;42.684;23.350;2022-07-18T06:08:58;96028.19;;;20.88;40.26
14067;BME280;7108;42.684;23.350;2022-07-18T06:11:23;96050.00;;;21.02;38.21
14067;BME280;7108;42.684;23.350;2022-07-18T06:13:49;96044.47;;;21.06;37.55
14067;BME280;7108;42.684;23.350;2022-07-18T06:16:14;96028.59;;;20.87;37.43
14067;BME280;7108;42.684;23.350;2022-07-18T06:18:40;96033.72;;;20.81;37.66
14067;BME280;7108;42.684;23.350;2022-07-18T06:21:06;96016.09;;;20.82;38.18
14067;BME280;7108;42.684;23.350;2022-07-18T06:23:31;96036.41;;;20.88;36.51
14067;BME280;7108;42.684;23.350;2022-07-18T06:25:57;96030.19;;;20.84;36.88
14067;BME280;7108;42.684;23.350;2022-07-18T06:28:23;96039.50;;;20.90;36.72
14067;BME280;7108;42.684;23.350;2022-07-18T06:30:50;96028.28;;;20.71;36.32
14067;BME280;7108;42.684;23.350;2022-07-18T06:33:15;96025.56;;;20.67;36.10
14067;BME280;7108;42.684;23.350;2022-07-18T06:35:43;96029.44;;;20.77;36.30
14067;BME280;7108;42.684;23.350;2022-07-18T06:38:09;96018.78;;;20.89;37.12
14067;BME280;7108;42.684;23.350;2022-07-18T06:40:34;96027.69;;;21.00;37.63
14067;BME280;7108;42.684;23.350;2022-07-18T06:42:59;96022.88;;;21.11;37.56
14067;BME280;7108;42.684;23.350;2022-07-18T06:45:25;96022.84;;;21.18;36.60
14067;BME280;7108;42.684;23.350;2022-07-18T06:47:51;96011.72;;;21.32;37.57
14067;BME280;7108;42.684;23.350;2022-07-18T06:50:16;96021.75;;;21.49;36.99
14067;BME280;7108;42.684;23.350;2022-07-18T06:52:44;96008.75;;;21.56;35.46
14067;BME280;7108;42.684;23.350;2022-07-18T06:55:11;96009.91;;;21.59;35.61
14067;BME280;7108;42.684;23.350;2022-07-18T06:57:37;96006.72;;;21.64;35.83
14067;BME280;7108;42.684;23.350;2022-07-18T07:00:04;95999.75;;;21.56;35.64
14067;BME280;7108;42.684;23.350;2022-07-18T07:02:30;96001.69;;;21.59;35.68
14067;BME280;7108;42.684;23.350;2022-07-18T07:04:58;95996.28;;;21.52;34.95
14067;BME280;7108;42.684;23.350;2022-07-18T07:07:24;96002.75;;;21.68;35.22
14067;BME280;7108;42.684;23.350;2022-07-18T07:09:49;96012.44;;;21.76;35.07
14067;BME280;7108;42.684;23.350;2022-07-18T07:12:15;96006.44;;;21.88;35.11
14067;BME280;7108;42.684;23.350;2022-07-18T07:14:40;95984.66;;;21.74;34.42
14067;BME280;7108;42.684;23.350;2022-07-18T07:17:06;96000.03;;;21.98;34.61
14067;BME280;7108;42.684;23.350;2022-07-18T07:19:31;95988.63;;;21.99;34.93
14067;BME280;7108;42.684;23.350;2022-07-18T07:21:57;95999.06;;;22.11;37.29
14067;BME280;7108;42.684;23.350;2022-07-18T07:24:22;95991.09;;;22.20;34.51
14067;BME280;7108;42.684;23.350;2022-07-18T07:26:48;95995.66;;;22.34;34.56
14067;BME280;7108;42.684;23.350;2022-07-18T07:29:13;96000.69;;;22.39;34.16
14067;BME280;7108;42.684;23.350;2022-07-18T07:31:40;96001.97;;;22.31;33.21
14067;BME280;7108;42.684;23.350;2022-07-18T07:34:06;95993.94;;;22.43;32.74
14067;BME280;7108;42.684;23.350;2022-07-18T07:36:32;95995.97;;;22.39;31.53
14067;BME280;7108;42.684;23.350;2022-07-18T07:38:57;95999.41;;;22.46;31.37
14067;BME280;7108;42.684;23.350;2022-07-18T07:41:22;96002.44;;;22.52;31.76
14067;BME280;7108;42.684;23.350;2022-07-18T07:43:48;95994.63;;;22.50;30.50
14067;BME280;7108;42.684;23.350;2022-07-18T07:46:14;95999.56;;;22.62;31.09
14067;BME280;7108;42.684;23.350;2022-07-18T07:48:39;96005.06;;;22.62;31.67
14067;BME280;7108;42.684;23.350;2022-07-18T07:51:05;96003.06;;;22.63;31.67
14067;BME280;7108;42.684;23.350;2022-07-18T07:53:31;95994.91;;;22.56;32.09
14067;BME280;7108;42.684;23.350;2022-07-18T07:55:57;95993.88;;;22.50;31.99
14067;BME280;7108;42.684;23.350;2022-07-18T07:58:22;96007.81;;;22.62;31.06
14067;BME280;7108;42.684;23.350;2022-07-18T08:00:48;95995.19;;;22.65;31.44
14067;BME280;7108;42.684;23.350;2022-07-18T08:03:13;96000.22;;;22.70;31.75
14067;BME280;7108;42.684;23.350;2022-07-18T08:05:44;96000.69;;;22.65;32.06
14067;BME280;7108;42.684;23.350;2022-07-18T08:08:10;96001.38;;;22.72;31.68
14067;BME280;7108;42.684;23.350;2022-07-18T08:10:36;96001.84;;;22.67;30.19
14067;BME280;7108;42.684;23.350;2022-07-18T08:13:01;96001.59;;;22.81;29.96
14067;BME280;7108;42.684;23.350;2022-07-18T08:15:27;95985.63;;;22.73;30.39
14067;BME280;7108;42.684;23.350;2022-07-18T08:17:53;96003.41;;;22.91;30.14
14067;BME280;7108;42.684;23.350;2022-07-18T08:20:20;96002.47;;;23.01;30.89
14067;BME280;7108;42.684;23.350;2022-07-18T08:25:19;96001.84;;;22.90;30.69
14067;BME280;7108;42.684;23.350;2022-07-18T08:27:44;95995.41;;;23.00;32.25
14067;BME280;7108;42.684;23.350;2022-07-18T08:30:10;96001.13;;;23.13;31.49
14067;BME280;7108;42.684;23.350;2022-07-18T08:32:36;96000.66;;;23.17;31.46
14067;BME280;7108;42.684;23.350;2022-07-18T08:35:01;96002.34;;;23.31;31.36
14067;BME280;7108;42.684;23.350;2022-07-18T08:37:26;95985.28;;;23.20;32.07
14067;BME280;7108;42.684;23.350;2022-07-18T08:39:52;96001.88;;;23.36;31.86
14067;BME280;7108;42.684;23.350;2022-07-18T08:42:18;96013.59;;;23.40;31.41
14067;BME280;7108;42.684;23.350;2022-07-18T08:44:47;96001.53;;;23.34;32.08
14067;BME280;7108;42.684;23.350;2022-07-18T08:47:15;95998.66;;;23.41;32.14
14067;BME280;7108;42.684;23.350;2022-07-18T08:49:43;95996.19;;;23.46;31.83
14067;BME280;7108;42.684;23.350;2022-07-18T08:52:09;96001.06;;;23.58;31.55
14067;BME280;7108;42.684;23.350;2022-07-18T08:54:35;95991.09;;;23.45;31.46
14067;BME280;7108;42.684;23.350;2022-07-18T08:57:01;95991.25;;;23.57;31.82
14067;BME280;7108;42.684;23.350;2022-07-18T08:59:27;95991.03;;;23.68;31.87
14067;BME280;7108;42.684;23.350;2022-07-18T09:01:52;95985.53;;;23.68;32.08
14067;BME280;7108;42.684;23.350;2022-07-18T09:04:36;95993.00;;;23.71;32.10
14067;BME280;7108;42.684;23.350;2022-07-18T09:07:03;95984.75;;;23.71;32.34
14067;BME280;7108;42.684;23.350;2022-07-18T09:09:29;95985.44;;;23.75;32.85
14067;BME280;7108;42.684;23.350;2022-07-18T09:12:03;95983.31;;;23.82;32.95
14067;BME280;7108;42.684;23.350;2022-07-18T09:19:43;95987.28;;;24.00;32.40
14067;BME280;7108;42.684;23.350;2022-07-18T09:22:21;95983.25;;;24.05;32.33
14067;BME280;7108;42.684;23.350;2022-07-18T09:24:54;95994.91;;;24.12;31.67
14067;BME280;7108;42.684;23.350;2022-07-18T09:30:20;95983.75;;;24.00;31.95
14067;BME280;7108;42.684;23.350;2022-07-18T09:32:49;95989.72;;;24.14;32.87
14067;BME280;7108;42.684;23.350;2022-07-18T09:35:26;95987.44;;;24.29;33.50
14067;BME280;7108;42.684;23.350;2022-07-18T09:37:58;95984.81;;;24.41;32.02
14067;BME280;7108;42.684;23.350;2022-07-18T09:40:32;95983.88;;;24.47;31.81
14067;BME280;7108;42.684;23.350;2022-07-18T09:43:01;95977.09;;;24.52;31.94
14067;BME280;7108;42.684;23.350;2022-07-18T09:48:05;95975.13;;;24.68;32.22
14067;BME280;7108;42.684;23.350;2022-07-18T09:53:11;95977.72;;;24.75;32.60
14067;BME280;7108;42.684;23.350;2022-07-18T09:55:48;95977.72;;;24.91;32.55
14067;BME280;7108;42.684;23.350;2022-07-18T09:58:21;95980.66;;;25.00;32.86
14067;BME280;7108;42.684;23.350;2022-07-18T10:00:48;95978.78;;;25.13;32.69
14067;BME280;7108;42.684;23.350;2022-07-18T10:03:14;95962.16;;;25.16;31.69
14067;BME280;7108;42.684;23.350;2022-07-18T10:05:40;95971.88;;;25.21;31.70
14067;BME280;7108;42.684;23.350;2022-07-18T10:08:10;95957.91;;;25.28;33.47
14067;BME280;7108;42.684;23.350;2022-07-18T10:10:37;95954.00;;;25.41;32.36
14067;BME280;7108;42.684;23.350;2022-07-18T10:13:04;95963.25;;;25.63;31.53
14067;BME280;7108;42.684;23.350;2022-07-18T10:15:32;95963.84;;;25.71;31.79
14067;BME280;7108;42.684;23.350;2022-07-18T10:17:59;95952.78;;;25.71;30.73
14067;BME280;7108;42.684;23.350;2022-07-18T10:20:31;95929.84;;;25.74;31.86
14067;BME280;7108;42.684;23.350;2022-07-18T10:23:01;95937.41;;;25.85;31.05
14067;BME280;7108;42.684;23.350;2022-07-18T10:25:27;95936.00;;;26.06;32.36
14067;BME280;7108;42.684;23.350;2022-07-18T10:28:13;95932.94;;;26.16;30.39
14067;BME280;7108;42.684;23.350;2022-07-18T10:33:37;95915.63;;;26.41;31.34
14067;BME280;7108;42.684;23.350;2022-07-18T10:36:06;95931.41;;;26.52;30.86
14067;BME280;7108;42.684;23.350;2022-07-18T10:38:32;95920.13;;;26.59;30.55
14067;BME280;7108;42.684;23.350;2022-07-18T10:41:12;95931.41;;;26.77;31.08
14067;BME280;7108;42.684;23.350;2022-07-18T10:43:43;95919.34;;;26.84;31.37
14067;BME280;7108;42.684;23.350;2022-07-18T10:46:10;95916.34;;;27.03;31.67
14067;BME280;7108;42.684;23.350;2022-07-18T10:51:10;95918.06;;;27.22;30.38
14067;BME280;7108;42.684;23.350;2022-07-18T10:54:03;95915.63;;;27.24;30.56
14067;BME280;7108;42.684;23.350;2022-07-18T10:59:21;95917.78;;;27.41;31.91
14067;BME280;7108;42.684;23.350;2022-07-18T11:01:56;95913.47;;;27.40;30.71
14067;BME280;7108;42.684;23.350;2022-07-18T11:07:13;95902.75;;;27.64;31.00
14067;BME280;7108;42.684;23.350;2022-07-18T11:09:47;95907.53;;;27.63;30.53
14067;BME280;7108;42.684;23.350;2022-07-18T11:12:30;95902.78;;;27.51;30.25
14067;BME280;7108;42.684;23.350;2022-07-18T11:15:10;95902.31;;;27.53;30.85
14067;BME280;7108;42.684;23.350;2022-07-18T11:22:52;95904.88;;;27.60;30.35
14067;BME280;7108;42.684;23.350;2022-07-18T11:25:18;95896.97;;;27.71;30.96
14067;BME280;7108;42.684;23.350;2022-07-18T11:27:44;95896.84;;;27.74;30.38
14067;BME280;7108;42.684;23.350;2022-07-18T11:30:16;95892.44;;;27.85;30.59
14067;BME280;7108;42.684;23.350;2022-07-18T11:32:42;95881.06;;;27.92;30.42
14067;BME280;7108;42.684;23.350;2022-07-18T11:35:08;95878.81;;;28.00;28.86
14067;BME280;7108;42.684;23.350;2022-07-18T11:37:38;95884.28;;;28.12;29.31
14067;BME280;7108;42.684;23.350;2022-07-18T11:40:08;95877.63;;;28.31;29.75
14067;BME280;7108;42.684;23.350;2022-07-18T11:42:38;95867.44;;;28.28;28.41
14067;BME280;7108;42.684;23.350;2022-07-18T11:45:09;95882.44;;;28.49;28.89
14067;BME280;7108;42.684;23.350;2022-07-18T11:47:53;95866.00;;;28.54;27.08
14067;BME280;7108;42.684;23.350;2022-07-18T11:50:34;95857.50;;;28.57;27.93
14067;BME280;7108;42.684;23.350;2022-07-18T11:53:00;95867.09;;;28.56;28.03
14067;BME280;7108;42.684;23.350;2022-07-18T11:55:36;95864.13;;;28.51;28.22
14067;BME280;7108;42.684;23.350;2022-07-18T11:58:10;95868.13;;;28.50;27.47
14067;BME280;7108;42.684;23.350;2022-07-18T12:00:36;95855.81;;;28.60;28.66
14067;BME280;7108;42.684;23.350;2022-07-18T12:05:36;95857.56;;;28.66;28.91
14067;BME280;7108;42.684;23.350;2022-07-18T12:08:25;95864.94;;;28.60;28.17
14067;BME280;7108;42.684;23.350;2022-07-18T12:11:11;95859.53;;;28.57;28.63
14067;BME280;7108;42.684;23.350;2022-07-18T12:13:50;95853.34;;;28.53;28.08
14067;BME280;7108;42.684;23.350;2022-07-18T12:16:41;95851.78;;;28.43;29.42
14067;BME280;7108;42.684;23.350;2022-07-18T12:19:16;95852.09;;;28.45;29.95
14067;BME280;7108;42.684;23.350;2022-07-18T12:24:40;95843.78;;;28.15;30.97
14067;BME280;7108;42.684;23.350;2022-07-18T12:27:09;95838.78;;;28.22;31.05
14067;BME280;7108;42.684;23.350;2022-07-18T12:32:18;95837.47;;;28.14;31.03
14067;BME280;7108;42.684;23.350;2022-07-18T12:34:59;95827.56;;;28.04;30.12
14067;BME280;7108;42.684;23.350;2022-07-18T12:37:26;95850.31;;;27.99;30.80
14067;BME280;7108;42.684;23.350;2022-07-18T12:40:00;95846.06;;;27.77;30.75
14067;BME280;7108;42.684;23.350;2022-07-18T12:42:32;95836.91;;;27.68;30.88
14067;BME280;7108;42.684;23.350;2022-07-18T12:44:58;95837.03;;;27.43;31.39
14067;BME280;7108;42.684;23.350;2022-07-18T12:47:24;95826.16;;;27.27;31.39
14067;BME280;7108;42.684;23.350;2022-07-18T12:49:49;95815.31;;;26.99;31.40
14067;BME280;7108;42.684;23.350;2022-07-18T12:52:15;95840.75;;;27.06;31.87
14067;BME280;7108;42.684;23.350;2022-07-18T12:54:40;95836.19;;;27.12;31.81
14067;BME280;7108;42.684;23.350;2022-07-18T12:57:05;95840.94;;;27.12;31.49
14067;BME280;7108;42.684;23.350;2022-07-18T12:59:31;95832.88;;;27.05;31.38
14067;BME280;7108;42.684;23.350;2022-07-18T13:01:57;95836.00;;;27.07;31.82
14067;BME280;7108;42.684;23.350;2022-07-18T13:04:22;95826.13;;;27.06;31.83
14067;BME280;7108;42.684;23.350;2022-07-18T13:06:48;95837.41;;;27.11;32.33
14067;BME280;7108;42.684;23.350;2022-07-18T13:09:13;95839.91;;;27.18;32.27
14067;BME280;7108;42.684;23.350;2022-07-18T13:11:38;95814.84;;;27.00;31.64
14067;BME280;7108;42.684;23.350;2022-07-18T13:14:06;95831.69;;;27.06;31.48
14067;BME280;7108;42.684;23.350;2022-07-18T13:16:31;95830.31;;;27.10;31.50
14067;BME280;7108;42.684;23.350;2022-07-18T13:18:57;95824.34;;;27.12;31.56
14067;BME280;7108;42.684;23.350;2022-07-18T13:21:22;95816.69;;;27.16;31.93
14067;BME280;7108;42.684;23.350;2022-07-18T13:23:48;95815.59;;;27.13;32.40
14067;BME280;7108;42.684;23.350;2022-07-18T13:26:13;95815.13;;;27.15;32.14
14067;BME280;7108;42.684;23.350;2022-07-18T13:28:39;95827.34;;;27.26;32.19
14067;BME280;7108;42.684;23.350;2022-07-18T13:31:04;95829.94;;;27.20;31.86
14067;BME280;7108;42.684;23.350;2022-07-18T13:33:30;95824.47;;;27.08;31.52
14067;BME280;7108;42.684;23.350;2022-07-18T13:35:55;95827.81;;;27.03;31.87
14067;BME280;7108;42.684;23.350;2022-07-18T13:38:21;95831.00;;;27.02;32.25
14067;BME280;7108;42.684;23.350;2022-07-18T13:40:47;95832.13;;;26.92;32.08